createdAt,value
2023-01-01T00:00:37.668Z,69.70
2023-01-01T00:03:04.250Z,68.25
2023-01-01T00:05:30.784Z,69.38
2023-01-01T00:08:04.339Z,79.97
2023-01-01T00:10:31.830Z,80.68
2023-01-01T00:12:59.437Z,60.08
2023-01-01T00:15:27.324Z,59.88
2023-01-01T00:17:54.190Z,58.80
2023-01-01T00:20:20.966Z,54.80
2023-01-01T00:22:56.142Z,46.05
2023-01-01T00:25:24.238Z,50.72
2023-01-01T00:27:50.915Z,45.78
2023-01-01T00:30:17.517Z,59.45
2023-01-01T00:32:55.493Z,76.93
2023-01-01T00:35:26.204Z,77.93
2023-01-01T00:37:54.045Z,62.35
2023-01-01T00:40:20.952Z,73.32
2023-01-01T00:42:47.594Z,64.22
2023-01-01T00:45:20.630Z,58.97
2023-01-01T00:47:48.671Z,58.10
2023-01-01T00:50:15.556Z,58.97
2023-01-01T00:52:42.142Z,59.33
2023-01-01T00:55:09.302Z,54.50
2023-01-01T00:57:35.962Z,56.72
2023-01-01T01:00:02.589Z,56.20
2023-01-01T01:02:29.326Z,58.40
2023-01-01T01:04:56.333Z,75.63
2023-01-01T01:07:23.114Z,69.32
2023-01-01T01:09:49.675Z,66.03
2023-01-01T01:12:17.726Z,65.10
2023-01-01T01:14:46.191Z,68.15
2023-01-01T01:17:12.818Z,69.30
2023-01-01T01:19:39.520Z,66.75
2023-01-01T01:22:06.271Z,74.38
2023-01-01T01:24:32.867Z,67.40
2023-01-01T01:26:59.380Z,71.47
2023-01-01T01:29:26.026Z,73.82
2023-01-01T01:31:52.575Z,84.68
2023-01-01T01:34:25.600Z,75.05
2023-01-01T01:36:54.339Z,72.38
2023-01-01T01:39:20.931Z,67.65
2023-01-01T01:41:47.484Z,74.25
2023-01-01T01:44:51.439Z,69.20
2023-01-01T01:47:38.074Z,74.90
2023-01-01T01:50:32.429Z,69.00
2023-01-01T01:53:10.333Z,72.20
2023-01-01T01:55:41.592Z,71.90
2023-01-01T01:58:09.930Z,75.47
2023-01-01T02:00:36.702Z,77.63
2023-01-01T02:03:08.296Z,71.53
2023-01-01T02:05:36.172Z,74.78
2023-01-01T02:08:06.981Z,81.70
2023-01-01T02:10:33.615Z,79.30
2023-01-01T02:13:00.888Z,76.68
2023-01-01T02:15:36.221Z,80.57
2023-01-01T02:18:15.333Z,82.65
2023-01-01T02:21:12.664Z,80.32
2023-01-01T02:23:54.287Z,77.00
2023-01-01T02:26:48.652Z,79.35
2023-01-01T02:29:33.147Z,78.43
2023-01-01T02:32:10.921Z,82.40
2023-01-01T02:34:46.650Z,79.32
2023-01-01T02:37:17.482Z,84.03
2023-01-01T02:39:53.735Z,84.90
2023-01-01T02:42:23.628Z,89.50
2023-01-01T02:44:53.850Z,88.78
2023-01-01T02:47:21.139Z,88.15
2023-01-01T02:50:08.512Z,88.10
2023-01-01T02:52:56.672Z,86.20
2023-01-01T02:55:48.350Z,87.15
2023-01-01T02:58:36.356Z,83.07
2023-01-01T03:01:38.506Z,88.88
2023-01-01T03:04:13.027Z,85.93
2023-01-01T03:07:14.480Z,85.57
2023-01-01T03:10:09.976Z,89.30
2023-01-01T03:15:29.113Z,80.32
2023-01-01T03:18:17.332Z,88.80
2023-01-01T03:20:47.817Z,94.13
2023-01-01T03:23:20.271Z,96.50
2023-01-01T03:25:53.612Z,96.22
2023-01-01T03:28:28.813Z,86.10
2023-01-01T03:30:57.636Z,87.97
2023-01-01T03:33:32.514Z,86.65
2023-01-01T03:36:11.898Z,87.70
2023-01-01T03:38:43.359Z,90.18
2023-01-01T03:41:35.589Z,94.40
2023-01-01T03:44:15.983Z,89.88
2023-01-01T03:46:42.716Z,88.50
2023-01-01T03:49:11.610Z,88.30
2023-01-01T03:51:54.699Z,92.00
2023-01-01T03:54:42.986Z,89.47
2023-01-01T03:57:19.506Z,82.20
2023-01-01T04:00:05.577Z,85.97
2023-01-01T04:02:37.874Z,86.47
2023-01-01T04:05:07.457Z,88.50
2023-01-01T04:07:34.938Z,91.68
2023-01-01T04:10:02.679Z,90.47
2023-01-01T04:12:30.537Z,93.80
2023-01-01T04:14:57.125Z,94.10
2023-01-01T04:17:23.676Z,94.88
2023-01-01T04:19:54.871Z,89.03
2023-01-01T04:22:23.633Z,93.55
2023-01-01T04:24:50.517Z,92.20
2023-01-01T04:27:17.073Z,91.68
2023-01-01T04:29:43.681Z,91.55
2023-01-01T04:32:10.264Z,91.95
2023-01-01T04:34:36.818Z,99.63
2023-01-01T04:37:05.828Z,96.20
2023-01-01T04:39:36.275Z,99.45
2023-01-01T04:42:02.816Z,93.18
2023-01-01T04:44:29.451Z,97.82
2023-01-01T04:47:00.080Z,91.93
2023-01-01T04:49:27.552Z,95.50
2023-01-01T04:51:54.117Z,93.95
2023-01-01T04:54:20.645Z,96.57
2023-01-01T04:56:47.187Z,97.20
2023-01-01T04:59:13.749Z,93.63
2023-01-01T05:01:40.458Z,94.95
2023-01-01T05:04:07.128Z,92.93
2023-01-01T05:06:33.715Z,92.63
2023-01-01T05:09:01.179Z,97.25
2023-01-01T05:11:29.605Z,98.30
2023-01-01T05:13:59.015Z,96.50
2023-01-01T05:16:32.748Z,95.82
2023-01-01T05:19:00.162Z,94.00
2023-01-01T05:21:34.356Z,100.60
2023-01-01T05:24:07.018Z,91.13
2023-01-01T05:26:40.528Z,97.20
2023-01-01T05:29:13.713Z,95.00
2023-01-01T05:31:43.064Z,94.68
2023-01-01T05:34:09.781Z,103.15
2023-01-01T05:36:39.068Z,97.38
2023-01-01T05:39:11.978Z,98.50
2023-01-01T05:41:39.046Z,97.55
2023-01-01T05:44:07.330Z,95.30
2023-01-01T05:46:33.945Z,97.65
2023-01-01T05:49:00.839Z,100.25
2023-01-01T05:51:29.328Z,102.30
2023-01-01T05:53:56.951Z,100.82
2023-01-01T05:56:23.705Z,96.38
2023-01-01T05:58:50.632Z,100.10
2023-01-01T06:01:28.704Z,94.95
2023-01-01T06:03:57.546Z,95.55
2023-01-01T06:06:26.580Z,95.28
2023-01-01T06:08:58.572Z,100.10
2023-01-01T06:11:26.473Z,97.43
2023-01-01T06:13:54.917Z,95.38
2023-01-01T06:16:21.650Z,99.82
2023-01-01T06:18:48.603Z,96.10
2023-01-01T06:21:17.733Z,100.78
2023-01-01T06:23:44.996Z,94.32
2023-01-01T06:26:17.520Z,93.75
2023-01-01T06:28:45.085Z,94.22
2023-01-01T06:31:14.600Z,95.43
2023-01-01T06:33:41.438Z,94.63
2023-01-01T06:36:10.613Z,98.32
2023-01-01T06:38:39.566Z,103.82
2023-01-01T06:41:08.519Z,95.90
2023-01-01T06:43:36.150Z,99.63
2023-01-01T06:46:05.968Z,97.00
2023-01-01T06:48:36.040Z,96.55
2023-01-01T06:51:07.731Z,96.03
2023-01-01T06:53:34.768Z,93.82
2023-01-01T06:56:01.440Z,96.43
2023-01-01T06:58:28.411Z,94.57
2023-01-01T07:00:55.207Z,93.80
2023-01-01T07:03:21.929Z,90.65
2023-01-01T07:05:48.527Z,92.68
2023-01-01T07:08:15.097Z,93.90
2023-01-01T07:10:41.718Z,95.95
2023-01-01T07:13:08.285Z,95.82
2023-01-01T07:15:34.942Z,91.65
2023-01-01T07:18:01.532Z,89.03
2023-01-01T07:20:28.114Z,91.63
2023-01-01T07:22:54.663Z,96.03
2023-01-01T07:25:21.243Z,92.78
2023-01-01T07:27:47.824Z,95.55
2023-01-01T07:30:14.480Z,98.03
2023-01-01T07:32:41.063Z,95.93
2023-01-01T07:35:07.961Z,94.68
2023-01-01T07:37:34.677Z,92.07
2023-01-01T07:40:01.315Z,98.63
2023-01-01T07:42:27.845Z,91.90
2023-01-01T07:44:54.393Z,95.82
2023-01-01T07:47:23.655Z,94.03
2023-01-01T07:49:51.205Z,93.25
2023-01-01T07:52:18.196Z,96.50
2023-01-01T07:54:45.067Z,100.15
2023-01-01T07:57:11.780Z,102.15
2023-01-01T07:59:38.545Z,93.50
2023-01-01T08:02:05.225Z,95.32
2023-01-01T08:04:31.870Z,94.30
2023-01-01T08:06:58.413Z,96.28
2023-01-01T08:09:25.002Z,98.50
2023-01-01T08:11:53.187Z,98.53
2023-01-01T08:14:19.844Z,102.00
2023-01-01T08:16:46.422Z,99.47
2023-01-01T08:19:13.099Z,96.38
2023-01-01T08:21:39.656Z,95.95
2023-01-01T08:24:06.410Z,104.57
2023-01-01T08:26:35.081Z,94.72
2023-01-01T08:29:06.338Z,93.82
2023-01-01T08:31:34.367Z,91.55
2023-01-01T08:34:00.976Z,90.22
2023-01-01T08:36:27.642Z,87.88
2023-01-01T08:38:54.248Z,82.28
2023-01-01T08:41:20.853Z,80.72
2023-01-01T08:43:47.439Z,85.80
2023-01-01T08:46:13.992Z,76.88
2023-01-01T08:48:40.726Z,72.70
2023-01-01T08:51:07.348Z,74.05
2023-01-01T08:53:33.999Z,73.70
2023-01-01T08:56:06.424Z,70.68
2023-01-01T08:58:35.350Z,65.50
2023-01-01T09:01:02.159Z,66.05
2023-01-01T09:03:30.181Z,64.65
2023-01-01T09:05:56.778Z,62.35
2023-01-01T09:08:23.796Z,60.58
2023-01-01T09:10:50.861Z,56.67
2023-01-01T09:13:21.369Z,58.25
2023-01-01T09:15:48.373Z,55.85
2023-01-01T09:18:14.989Z,58.38
2023-01-01T09:20:41.635Z,60.97
2023-01-01T09:23:08.823Z,75.70
2023-01-01T09:25:35.811Z,105.47
2023-01-01T09:28:05.599Z,91.20
2023-01-01T09:30:32.896Z,92.35
2023-01-01T09:32:59.463Z,86.38
2023-01-01T09:35:26.037Z,84.30
2023-01-01T09:37:52.694Z,84.07
2023-01-01T09:40:51.799Z,84.35
2023-01-01T09:43:20.988Z,77.93
2023-01-01T09:46:00.450Z,71.72
2023-01-01T09:48:29.834Z,91.55
2023-01-01T09:50:57.995Z,120.00
2023-01-01T09:53:47.832Z,187.68
2023-01-01T09:56:29.608Z,157.55
2023-01-01T09:58:59.139Z,136.68
2023-01-01T10:01:42.975Z,264.92
2023-01-01T10:04:31.349Z,254.98
2023-01-01T10:07:00.795Z,228.52
2023-01-01T10:09:27.294Z,167.18
2023-01-01T10:12:12.075Z,151.57
2023-01-01T10:15:00.674Z,83.97
2023-01-01T10:17:35.589Z,92.35
2023-01-01T10:22:44.688Z,155.80
2023-01-01T10:25:18.414Z,67.40
2023-01-01T10:27:59.732Z,55.10
2023-01-01T10:30:28.186Z,76.15
2023-01-01T10:32:56.199Z,82.90
2023-01-01T10:35:31.220Z,57.90
2023-01-01T10:38:02.320Z,40.55
2023-01-01T10:40:29.893Z,44.05
2023-01-01T10:42:59.594Z,46.10
2023-01-01T10:45:50.848Z,134.98
2023-01-01T10:48:21.328Z,82.57
2023-01-01T10:50:56.128Z,65.75
2023-01-01T10:53:39.192Z,45.80
2023-01-01T10:56:12.374Z,33.25
2023-01-01T10:58:50.955Z,32.40
2023-01-01T11:01:17.689Z,27.20
2023-01-01T11:03:59.623Z,27.30
2023-01-01T11:06:27.848Z,28.02
2023-01-01T11:08:59.833Z,27.77
2023-01-01T11:11:32.611Z,28.23
2023-01-01T11:14:04.541Z,27.80
2023-01-01T11:16:31.785Z,28.15
2023-01-01T11:19:06.940Z,26.67
2023-01-01T11:21:34.776Z,28.10
2023-01-01T11:24:19.148Z,30.05
2023-01-01T11:29:30.445Z,23.65
2023-01-01T11:31:58.799Z,25.00
2023-01-01T11:34:37.243Z,24.20
2023-01-01T11:37:34.326Z,25.15
2023-01-01T11:40:02.065Z,22.83
2023-01-01T11:42:31.350Z,24.63
2023-01-01T11:45:01.652Z,23.63
2023-01-01T11:47:33.787Z,25.40
2023-01-01T11:50:09.015Z,25.52
2023-01-01T11:52:44.741Z,26.05
2023-01-01T11:55:50.795Z,27.17
2023-01-01T11:58:28.649Z,26.13
2023-01-01T12:00:59.361Z,25.48
2023-01-01T12:03:34.298Z,27.20
2023-01-01T12:06:07.445Z,26.42
2023-01-01T12:08:47.068Z,27.58
2023-01-01T12:11:34.872Z,25.55
2023-01-01T12:14:32.727Z,26.52
2023-01-01T12:17:05.408Z,30.42
2023-01-01T12:19:40.352Z,31.17
2023-01-01T12:22:16.691Z,35.38
2023-01-01T12:24:44.407Z,37.05
2023-01-01T12:27:14.056Z,38.65
2023-01-01T12:30:06.305Z,40.10
2023-01-01T12:32:32.811Z,35.75
2023-01-01T12:35:23.296Z,32.90
2023-01-01T12:38:18.193Z,33.65
2023-01-01T12:43:24.449Z,28.98
2023-01-01T12:46:00.232Z,27.83
2023-01-01T12:49:19.576Z,26.38
2023-01-01T12:52:31.685Z,25.83
2023-01-01T12:55:22.973Z,23.92
2023-01-01T12:57:57.406Z,24.52
2023-01-01T13:00:24.776Z,22.95
2023-01-01T13:02:58.689Z,23.05
2023-01-01T13:05:36.898Z,23.33
2023-01-01T13:08:05.569Z,23.85
2023-01-01T13:10:38.585Z,23.20
2023-01-01T13:13:05.674Z,22.67
2023-01-01T13:15:37.857Z,21.50
2023-01-01T13:18:18.267Z,22.83
2023-01-01T13:20:55.417Z,22.83
2023-01-01T13:23:38.441Z,26.77
2023-01-01T13:26:20.887Z,25.05
2023-01-01T13:28:59.608Z,24.95
2023-01-01T13:31:38.791Z,26.60
2023-01-01T13:34:30.336Z,25.23
2023-01-01T13:37:15.266Z,27.90
2023-01-01T13:39:52.700Z,29.35
2023-01-01T13:43:06.317Z,29.73
2023-01-01T13:49:03.430Z,35.95
2023-01-01T13:52:09.238Z,38.80
2023-01-01T13:55:13.319Z,40.25
2023-01-01T13:58:00.263Z,40.58
2023-01-01T14:00:54.942Z,40.17
2023-01-01T14:03:23.031Z,39.85
2023-01-01T14:05:56.241Z,35.22
2023-01-01T14:08:41.239Z,34.92
2023-01-01T14:11:24.979Z,31.70
2023-01-01T14:13:51.736Z,33.53
2023-01-01T14:16:18.607Z,31.58
2023-01-01T14:18:58.553Z,32.80
2023-01-01T14:21:34.089Z,33.90
2023-01-01T14:24:08.521Z,32.50
2023-01-01T14:26:38.808Z,40.42
2023-01-01T14:29:10.920Z,41.00
2023-01-01T14:31:46.898Z,44.10
2023-01-01T14:34:27.217Z,45.75
2023-01-01T14:36:56.386Z,55.95
2023-01-01T14:39:31.176Z,75.65
2023-01-01T14:42:09.297Z,98.72
2023-01-01T14:44:39.595Z,121.15
2023-01-01T14:47:26.524Z,141.50
2023-01-01T14:49:55.467Z,141.32
2023-01-01T14:52:28.853Z,152.48
2023-01-01T14:54:59.112Z,157.02
2023-01-01T14:57:28.983Z,156.75
2023-01-01T14:59:56.731Z,156.68
2023-01-01T15:02:30.240Z,150.43
2023-01-01T15:04:58.092Z,129.40
2023-01-01T15:07:28.435Z,118.45
2023-01-01T15:09:57.932Z,87.97
2023-01-01T15:12:24.833Z,73.25
2023-01-01T15:14:53.558Z,67.53
2023-01-01T15:17:22.404Z,60.65
2023-01-01T15:20:06.653Z,60.03
2023-01-01T15:22:37.281Z,58.60
2023-01-01T15:25:04.201Z,58.25
2023-01-01T15:27:36.646Z,60.90
2023-01-01T15:30:13.214Z,62.50
2023-01-01T15:32:41.013Z,67.88
2023-01-01T15:35:33.899Z,69.90
2023-01-01T15:38:14.594Z,73.53
2023-01-01T15:40:42.077Z,72.35
2023-01-01T15:43:21.128Z,76.45
2023-01-01T15:45:59.198Z,70.97
2023-01-01T15:48:46.145Z,71.18
2023-01-01T15:51:19.711Z,72.32
2023-01-01T15:53:51.753Z,74.25
2023-01-01T15:56:20.063Z,77.90
2023-01-01T15:59:17.184Z,74.07
2023-01-01T16:01:44.414Z,71.90
2023-01-01T16:04:13.843Z,79.90
2023-01-01T16:06:49.704Z,73.13
2023-01-01T16:09:18.070Z,67.15
2023-01-01T16:11:45.288Z,68.05
2023-01-01T16:14:12.297Z,65.03
2023-01-01T16:16:40.138Z,67.70
2023-01-01T16:19:11.725Z,72.88
2023-01-01T16:21:38.287Z,64.70
2023-01-01T16:24:06.666Z,62.13
2023-01-01T16:26:33.213Z,63.95
2023-01-01T16:29:01.116Z,59.25
2023-01-01T16:31:28.737Z,71.60
2023-01-01T16:33:57.668Z,69.65
2023-01-01T16:36:27.457Z,70.22
2023-01-01T16:38:54.063Z,75.15
2023-01-01T16:41:20.616Z,74.20
2023-01-01T16:43:47.769Z,85.47
2023-01-01T16:46:15.018Z,85.10
2023-01-01T16:48:42.012Z,76.97
2023-01-01T16:51:18.157Z,92.38
2023-01-01T16:53:45.128Z,94.50
2023-01-01T16:56:12.981Z,106.93
2023-01-01T16:59:02.283Z,103.90
2023-01-01T17:01:26.885Z,104.40
2023-01-01T17:03:53.634Z,104.68
2023-01-01T17:06:20.519Z,114.95
2023-01-01T17:08:47.347Z,124.72
2023-01-01T17:11:17.028Z,123.60
2023-01-01T17:13:45.420Z,127.80
2023-01-01T17:16:13.949Z,128.63
2023-01-01T17:21:28.918Z,122.72
2023-01-01T17:23:56.904Z,126.03
2023-01-01T17:26:26.353Z,132.05
2023-01-01T17:29:00.033Z,137.57
2023-01-01T17:31:28.702Z,127.63
2023-01-01T17:33:55.569Z,130.02
2023-01-01T17:36:22.175Z,116.95
2023-01-01T17:38:48.756Z,131.82
2023-01-01T17:41:16.511Z,124.57
2023-01-01T17:43:49.004Z,154.65
2023-01-01T17:46:20.425Z,136.50
2023-01-01T17:48:48.155Z,132.45
2023-01-01T17:51:16.436Z,136.85
2023-01-01T17:53:43.684Z,133.80
2023-01-01T17:56:16.514Z,138.18
2023-01-01T17:58:44.504Z,130.57
2023-01-01T18:01:11.143Z,130.68
2023-01-01T18:03:38.888Z,139.63
2023-01-01T18:06:06.300Z,145.45
2023-01-01T18:08:33.163Z,135.68
2023-01-01T18:11:00.158Z,122.05
2023-01-01T18:13:27.427Z,114.28
2023-01-01T18:15:54.416Z,118.30
2023-01-01T18:18:21.058Z,116.85
2023-01-01T18:20:47.743Z,121.90
2023-01-01T18:23:14.306Z,118.38
2023-01-01T18:25:40.846Z,113.20
2023-01-01T18:28:10.431Z,116.55
2023-01-01T18:30:37.047Z,124.03
2023-01-01T18:33:03.603Z,138.07
2023-01-01T18:35:30.145Z,120.40
2023-01-01T18:37:57.147Z,113.72
2023-01-01T18:40:24.054Z,108.55
2023-01-01T18:43:06.141Z,126.65
2023-01-01T18:45:34.388Z,104.47
2023-01-01T18:48:06.741Z,106.63
2023-01-01T18:50:35.856Z,104.95
2023-01-01T18:53:16.999Z,112.57
2023-01-01T18:55:43.595Z,105.85
2023-01-01T18:58:24.205Z,107.80
2023-01-01T19:00:53.197Z,104.32
2023-01-01T19:03:28.760Z,104.00
2023-01-01T19:05:56.472Z,105.47
2023-01-01T19:08:23.773Z,105.22
2023-01-01T19:10:59.118Z,110.18
2023-01-01T19:13:31.324Z,104.20
2023-01-01T19:16:17.906Z,105.93
2023-01-01T19:18:46.592Z,104.90
2023-01-01T19:21:13.119Z,105.80
2023-01-01T19:23:48.531Z,104.45
2023-01-01T19:26:36.914Z,102.18
2023-01-01T19:29:14.905Z,107.43
2023-01-01T19:31:41.541Z,111.05
2023-01-01T19:34:10.416Z,111.10
2023-01-01T19:36:37.739Z,109.45
2023-01-01T19:39:05.016Z,115.78
2023-01-01T19:41:31.597Z,109.28
2023-01-01T19:43:58.187Z,111.35
2023-01-01T19:46:24.751Z,108.68
2023-01-01T19:48:53.143Z,108.35
2023-01-01T19:51:22.563Z,112.82
2023-01-01T19:53:53.238Z,106.07
2023-01-01T19:56:20.025Z,111.15
2023-01-01T19:58:47.102Z,108.38
2023-01-01T20:01:14.227Z,106.78
2023-01-01T20:03:57.450Z,109.07
2023-01-01T20:06:25.532Z,112.43
2023-01-01T20:08:52.459Z,108.75
2023-01-01T20:11:20.713Z,112.18
2023-01-01T20:13:47.421Z,114.47
2023-01-01T20:16:14.152Z,112.32
2023-01-01T20:18:40.872Z,113.80
2023-01-01T20:21:27.063Z,118.40
2023-01-01T20:23:54.951Z,107.38
2023-01-01T20:26:23.709Z,112.10
2023-01-01T20:29:09.172Z,108.20
2023-01-01T20:31:35.930Z,113.85
2023-01-01T20:34:02.556Z,116.03
2023-01-01T20:36:47.372Z,114.60
2023-01-01T20:39:14.057Z,113.43
2023-01-01T20:41:40.660Z,117.78
2023-01-01T20:44:07.235Z,114.57
2023-01-01T20:46:33.984Z,113.97
2023-01-01T20:49:00.645Z,117.80
2023-01-01T20:51:27.374Z,112.70
2023-01-01T20:53:53.923Z,118.63
2023-01-01T20:56:20.587Z,116.10
2023-01-01T20:58:56.094Z,113.38
2023-01-01T21:01:26.209Z,115.55
2023-01-01T21:03:52.936Z,110.43
2023-01-01T21:06:24.111Z,112.50
2023-01-01T21:08:51.674Z,113.30
2023-01-01T21:11:18.478Z,111.00
2023-01-01T21:13:45.599Z,107.53
2023-01-01T21:16:28.866Z,111.28
2023-01-01T21:18:56.291Z,110.65
2023-01-01T21:21:29.339Z,111.78
2023-01-01T21:24:12.071Z,110.72
2023-01-01T21:26:38.643Z,107.75
2023-01-01T21:29:11.709Z,108.15
2023-01-01T21:31:38.352Z,110.22
2023-01-01T21:34:24.616Z,106.13
2023-01-01T21:36:51.244Z,108.03
2023-01-01T21:39:26.499Z,104.50
2023-01-01T21:41:53.206Z,110.18
2023-01-01T21:44:19.725Z,109.65
2023-01-01T21:46:55.461Z,111.32
2023-01-01T21:49:35.972Z,107.78
2023-01-01T21:52:04.137Z,105.70
2023-01-01T21:54:36.535Z,106.20
2023-01-01T21:57:17.285Z,106.43
2023-01-01T21:59:47.679Z,107.53
2023-01-01T22:02:14.467Z,108.70
2023-01-01T22:04:43.799Z,114.15
2023-01-01T22:10:16.641Z,110.53
2023-01-01T22:12:43.714Z,112.75
2023-01-01T22:15:29.094Z,114.70
2023-01-01T22:18:15.661Z,106.90
2023-01-01T22:20:44.403Z,109.10
2023-01-01T22:23:34.172Z,111.35
2023-01-01T22:26:14.368Z,111.15
2023-01-01T22:28:43.671Z,109.55
2023-01-01T22:31:26.499Z,107.40
2023-01-01T22:33:55.405Z,102.45
2023-01-01T22:36:30.487Z,103.50
2023-01-01T22:39:26.487Z,103.32
2023-01-01T22:41:53.285Z,103.25
2023-01-01T22:44:19.979Z,106.80
2023-01-01T22:46:46.561Z,111.82
2023-01-01T22:49:23.716Z,103.68
2023-01-01T22:51:58.444Z,96.38
2023-01-01T22:54:25.020Z,97.68
2023-01-01T22:56:51.601Z,99.55
2023-01-01T22:59:18.196Z,103.45
2023-01-01T23:01:44.804Z,103.55
2023-01-01T23:04:11.413Z,102.07
2023-01-01T23:06:38.928Z,99.22
2023-01-01T23:09:06.433Z,99.00
2023-01-01T23:11:33.063Z,97.15
2023-01-01T23:14:18.157Z,107.15
2023-01-01T23:16:44.736Z,98.97
2023-01-01T23:19:11.343Z,104.80
2023-01-01T23:21:42.305Z,108.55
2023-01-01T23:24:16.332Z,110.72
2023-01-01T23:26:43.559Z,108.00
2023-01-01T23:29:11.636Z,99.32
2023-01-01T23:31:39.841Z,93.90
2023-01-01T23:34:06.671Z,95.65
2023-01-01T23:36:34.206Z,102.47
2023-01-01T23:39:00.783Z,96.78
2023-01-01T23:41:27.387Z,98.90
2023-01-01T23:43:53.977Z,105.20
2023-01-01T23:46:20.776Z,96.65
2023-01-01T23:48:48.483Z,100.03
2023-01-01T23:51:16.631Z,93.68
2023-01-01T23:53:43.265Z,97.25
2023-01-01T23:56:09.858Z,98.68
2023-01-01T23:58:36.423Z,96.65
